sensor_id;sensor_type;location;lat;lon;timestamp;P1;durP1;ratioP1;P2;durP2;ratioP2
39858;SDS011;25528;47.810;12.960;2022-07-01T00:02:21;2.88;;;1.80;;
39858;SDS011;25528;47.810;12.960;2022-07-01T00:04:47;2.08;;;1.60;;
39858;SDS011;25528;47.810;12.960;2022-07-01T00:07:13;2.87;;;1.60;;
39858;SDS011;25528;47.810;12.960;2022-07-01T00:09:41;2.75;;;1.58;;
39858;SDS011;25528;47.810;12.960;2022-07-01T00:12:08;2.65;;;1.77;;
39858;SDS011;25528;47.810;12.960;2022-07-01T00:14:34;2.35;;;1.67;;
39858;SDS011;25528;47.810;12.960;2022-07-01T00:16:59;2.27;;;1.70;;
39858;SDS011;25528;47.810;12.960;2022-07-01T00:19:26;2.47;;;1.67;;
39858;SDS011;25528;47.810;12.960;2022-07-01T00:21:52;2.38;;;1.60;;
39858;SDS011;25528;47.810;12.960;2022-07-01T00:24:18;2.40;;;1.70;;
39858;SDS011;25528;47.810;12.960;2022-07-01T00:26:45;2.50;;;1.80;;
39858;SDS011;25528;47.810;12.960;2022-07-01T00:29:11;2.42;;;1.77;;
39858;SDS011;25528;47.810;12.960;2022-07-01T00:31:37;2.17;;;1.40;;
39858;SDS011;25528;47.810;12.960;2022-07-01T00:34:03;2.35;;;1.60;;
39858;SDS011;25528;47.810;12.960;2022-07-01T00:36:29;1.80;;;1.50;;
39858;SDS011;25528;47.810;12.960;2022-07-01T00:38:55;2.17;;;1.50;;
39858;SDS011;25528;47.810;12.960;2022-07-01T00:41:21;2.53;;;1.53;;
39858;SDS011;25528;47.810;12.960;2022-07-01T00:43:48;2.85;;;1.40;;
39858;SDS011;25528;47.810;12.960;2022-07-01T00:46:13;1.87;;;1.37;;
39858;SDS011;25528;47.810;12.960;2022-07-01T00:48:39;2.15;;;1.48;;
39858;SDS011;25528;47.810;12.960;2022-07-01T00:51:06;1.70;;;1.48;;
39858;SDS011;25528;47.810;12.960;2022-07-01T00:53:32;2.15;;;1.50;;
39858;SDS011;25528;47.810;12.960;2022-07-01T00:55:59;2.30;;;1.60;;
39858;SDS011;25528;47.810;12.960;2022-07-01T00:58:26;2.25;;;1.55;;
39858;SDS011;25528;47.810;12.960;2022-07-01T01:00:54;2.67;;;1.52;;
39858;SDS011;25528;47.810;12.960;2022-07-01T01:03:22;2.20;;;1.50;;
39858;SDS011;25528;47.810;12.960;2022-07-01T01:05:48;1.90;;;1.40;;
39858;SDS011;25528;47.810;12.960;2022-07-01T01:08:14;2.10;;;1.40;;
39858;SDS011;25528;47.810;12.960;2022-07-01T01:10:40;2.45;;;1.50;;
39858;SDS011;25528;47.810;12.960;2022-07-01T01:13:08;2.28;;;1.50;;
39858;SDS011;25528;47.810;12.960;2022-07-01T01:15:34;2.75;;;1.60;;
39858;SDS011;25528;47.810;12.960;2022-07-01T01:18:00;1.83;;;1.30;;
39858;SDS011;25528;47.810;12.960;2022-07-01T01:20:31;3.20;;;1.52;;
39858;SDS011;25528;47.810;12.960;2022-07-01T01:22:57;2.45;;;1.50;;
39858;SDS011;25528;47.810;12.960;2022-07-01T01:25:23;1.95;;;1.42;;
39858;SDS011;25528;47.810;12.960;2022-07-01T01:27:50;2.08;;;1.67;;
39858;SDS011;25528;47.810;12.960;2022-07-01T01:30:15;3.50;;;1.33;;
39858;SDS011;25528;47.810;12.960;2022-07-01T01:32:41;1.90;;;1.40;;
39858;SDS011;25528;47.810;12.960;2022-07-01T01:35:08;2.40;;;1.35;;
39858;SDS011;25528;47.810;12.960;2022-07-01T01:37:34;1.85;;;1.55;;
39858;SDS011;25528;47.810;12.960;2022-07-01T01:40:00;2.33;;;1.60;;
39858;SDS011;25528;47.810;12.960;2022-07-01T01:42:26;2.10;;;1.42;;
39858;SDS011;25528;47.810;12.960;2022-07-01T01:44:52;1.80;;;1.50;;
39858;SDS011;25528;47.810;12.960;2022-07-01T01:47:19;2.13;;;1.60;;
39858;SDS011;25528;47.810;12.960;2022-07-01T01:49:45;1.80;;;1.60;;
39858;SDS011;25528;47.810;12.960;2022-07-01T01:52:11;2.53;;;1.55;;
39858;SDS011;25528;47.810;12.960;2022-07-01T01:54:36;1.80;;;1.50;;
39858;SDS011;25528;47.810;12.960;2022-07-01T01:57:05;1.70;;;1.60;;
39858;SDS011;25528;47.810;12.960;2022-07-01T01:59:31;2.85;;;1.70;;
39858;SDS011;25528;47.810;12.960;2022-07-01T02:01:56;1.50;;;1.40;;
39858;SDS011;25528;47.810;12.960;2022-07-01T02:04:23;2.50;;;1.70;;
39858;SDS011;25528;47.810;12.960;2022-07-01T02:06:49;2.08;;;1.60;;
39858;SDS011;25528;47.810;12.960;2022-07-01T02:09:16;3.00;;;1.67;;
39858;SDS011;25528;47.810;12.960;2022-07-01T02:11:41;2.60;;;1.80;;
39858;SDS011;25528;47.810;12.960;2022-07-01T02:14:07;2.50;;;1.70;;
39858;SDS011;25528;47.810;12.960;2022-07-01T02:16:33;2.60;;;2.00;;
39858;SDS011;25528;47.810;12.960;2022-07-01T02:18:58;2.42;;;1.77;;
39858;SDS011;25528;47.810;12.960;2022-07-01T02:21:24;1.92;;;1.63;;
39858;SDS011;25528;47.810;12.960;2022-07-01T02:23:50;2.13;;;1.80;;
39858;SDS011;25528;47.810;12.960;2022-07-01T02:26:17;1.88;;;1.70;;
39858;SDS011;25528;47.810;12.960;2022-07-01T02:28:43;2.30;;;1.60;;
39858;SDS011;25528;47.810;12.960;2022-07-01T02:31:09;2.40;;;1.80;;
39858;SDS011;25528;47.810;12.960;2022-07-01T02:33:35;2.27;;;1.70;;
39858;SDS011;25528;47.810;12.960;2022-07-01T02:36:00;1.80;;;1.60;;
39858;SDS011;25528;47.810;12.960;2022-07-01T02:38:26;1.87;;;1.57;;
39858;SDS011;25528;47.810;12.960;2022-07-01T02:40:52;1.92;;;1.70;;
39858;SDS011;25528;47.810;12.960;2022-07-01T02:43:17;1.90;;;1.67;;
39858;SDS011;25528;47.810;12.960;2022-07-01T02:45:43;1.77;;;1.67;;
39858;SDS011;25528;47.810;12.960;2022-07-01T02:48:09;3.00;;;1.90;;
39858;SDS011;25528;47.810;12.960;2022-07-01T02:50:35;2.83;;;1.87;;
39858;SDS011;25528;47.810;12.960;2022-07-01T02:53:00;2.00;;;1.70;;
39858;SDS011;25528;47.810;12.960;2022-07-01T02:55:26;2.30;;;1.80;;
39858;SDS011;25528;47.810;12.960;2022-07-01T02:57:54;2.57;;;1.80;;
39858;SDS011;25528;47.810;12.960;2022-07-01T03:00:19;2.25;;;1.67;;
39858;SDS011;25528;47.810;12.960;2022-07-01T03:02:47;2.00;;;1.80;;
39858;SDS011;25528;47.810;12.960;2022-07-01T03:05:13;2.00;;;1.80;;
39858;SDS011;25528;47.810;12.960;2022-07-01T03:07:39;2.88;;;1.70;;
39858;SDS011;25528;47.810;12.960;2022-07-01T03:10:05;2.20;;;1.70;;
39858;SDS011;25528;47.810;12.960;2022-07-01T03:12:32;2.00;;;1.80;;
39858;SDS011;25528;47.810;12.960;2022-07-01T03:15:05;1.90;;;1.70;;
39858;SDS011;25528;47.810;12.960;2022-07-01T03:17:32;3.30;;;2.08;;
39858;SDS011;25528;47.810;12.960;2022-07-01T03:19:59;4.90;;;2.30;;
39858;SDS011;25528;47.810;12.960;2022-07-01T03:22:26;5.57;;;2.50;;
39858;SDS011;25528;47.810;12.960;2022-07-01T03:24:54;4.00;;;2.25;;
39858;SDS011;25528;47.810;12.960;2022-07-01T03:27:20;3.25;;;2.30;;
39858;SDS011;25528;47.810;12.960;2022-07-01T03:29:46;4.20;;;2.33;;
39858;SDS011;25528;47.810;12.960;2022-07-01T03:32:12;3.23;;;2.27;;
39858;SDS011;25528;47.810;12.960;2022-07-01T03:34:39;3.88;;;2.50;;
39858;SDS011;25528;47.810;12.960;2022-07-01T03:37:06;3.70;;;2.38;;
39858;SDS011;25528;47.810;12.960;2022-07-01T03:39:33;4.25;;;2.22;;
39858;SDS011;25528;47.810;12.960;2022-07-01T03:42:01;3.22;;;2.17;;
39858;SDS011;25528;47.810;12.960;2022-07-01T03:44:27;3.20;;;2.25;;
39858;SDS011;25528;47.810;12.960;2022-07-01T03:46:53;4.27;;;2.17;;
39858;SDS011;25528;47.810;12.960;2022-07-01T03:49:20;3.40;;;2.20;;
39858;SDS011;25528;47.810;12.960;2022-07-01T03:51:46;4.10;;;2.30;;
39858;SDS011;25528;47.810;12.960;2022-07-01T03:54:12;4.53;;;2.30;;
39858;SDS011;25528;47.810;12.960;2022-07-01T03:59:35;5.85;;;2.08;;
39858;SDS011;25528;47.810;12.960;2022-07-01T04:02:02;5.57;;;2.10;;
39858;SDS011;25528;47.810;12.960;2022-07-01T04:04:29;5.68;;;2.20;;
39858;SDS011;25528;47.810;12.960;2022-07-01T04:06:56;5.93;;;1.92;;
39858;SDS011;25528;47.810;12.960;2022-07-01T04:09:24;5.38;;;1.65;;
39858;SDS011;25528;47.810;12.960;2022-07-01T04:11:51;2.60;;;1.50;;
39858;SDS011;25528;47.810;12.960;2022-07-01T04:14:17;3.50;;;1.67;;
39858;SDS011;25528;47.810;12.960;2022-07-01T04:16:43;3.72;;;1.92;;
39858;SDS011;25528;47.810;12.960;2022-07-01T04:19:10;6.72;;;1.90;;
39858;SDS011;25528;47.810;12.960;2022-07-01T04:21:36;3.95;;;1.60;;
39858;SDS011;25528;47.810;12.960;2022-07-01T04:24:20;4.70;;;2.10;;
39858;SDS011;25528;47.810;12.960;2022-07-01T04:26:49;4.25;;;1.83;;
39858;SDS011;25528;47.810;12.960;2022-07-01T04:29:16;3.80;;;1.65;;
39858;SDS011;25528;47.810;12.960;2022-07-01T04:31:42;2.38;;;1.63;;
39858;SDS011;25528;47.810;12.960;2022-07-01T04:34:08;3.80;;;1.90;;
39858;SDS011;25528;47.810;12.960;2022-07-01T04:36:35;3.78;;;1.75;;
39858;SDS011;25528;47.810;12.960;2022-07-01T04:39:01;3.88;;;1.67;;
39858;SDS011;25528;47.810;12.960;2022-07-01T04:41:27;3.28;;;1.70;;
39858;SDS011;25528;47.810;12.960;2022-07-01T04:44:12;2.67;;;1.55;;
39858;SDS011;25528;47.810;12.960;2022-07-01T04:46:38;2.83;;;1.60;;
39858;SDS011;25528;47.810;12.960;2022-07-01T04:49:03;4.30;;;2.50;;
39858;SDS011;25528;47.810;12.960;2022-07-01T04:51:29;4.22;;;2.13;;
39858;SDS011;25528;47.810;12.960;2022-07-01T04:53:55;4.63;;;2.03;;
39858;SDS011;25528;47.810;12.960;2022-07-01T04:56:21;4.50;;;2.20;;
39858;SDS011;25528;47.810;12.960;2022-07-01T04:58:47;3.70;;;2.10;;
39858;SDS011;25528;47.810;12.960;2022-07-01T05:01:13;5.10;;;2.00;;
39858;SDS011;25528;47.810;12.960;2022-07-01T05:03:39;4.78;;;2.03;;
39858;SDS011;25528;47.810;12.960;2022-07-01T05:06:04;2.97;;;1.80;;
39858;SDS011;25528;47.810;12.960;2022-07-01T05:08:30;3.40;;;1.90;;
39858;SDS011;25528;47.810;12.960;2022-07-01T05:10:56;3.20;;;1.83;;
39858;SDS011;25528;47.810;12.960;2022-07-01T05:13:22;5.05;;;2.20;;
39858;SDS011;25528;47.810;12.960;2022-07-01T05:15:48;4.03;;;2.00;;
39858;SDS011;25528;47.810;12.960;2022-07-01T05:18:14;3.33;;;2.10;;
39858;SDS011;25528;47.810;12.960;2022-07-01T05:20:57;3.53;;;1.65;;
39858;SDS011;25528;47.810;12.960;2022-07-01T05:23:41;4.68;;;2.00;;
39858;SDS011;25528;47.810;12.960;2022-07-01T05:26:07;3.53;;;2.00;;
39858;SDS011;25528;47.810;12.960;2022-07-01T05:28:33;4.17;;;2.00;;
39858;SDS011;25528;47.810;12.960;2022-07-01T05:30:58;3.35;;;2.03;;
39858;SDS011;25528;47.810;12.960;2022-07-01T05:33:24;2.70;;;1.63;;
39858;SDS011;25528;47.810;12.960;2022-07-01T05:35:53;3.15;;;1.88;;
39858;SDS011;25528;47.810;12.960;2022-07-01T05:38:19;2.67;;;1.90;;
39858;SDS011;25528;47.810;12.960;2022-07-01T05:40:44;2.37;;;1.80;;
39858;SDS011;25528;47.810;12.960;2022-07-01T05:43:10;2.42;;;1.67;;
39858;SDS011;25528;47.810;12.960;2022-07-01T05:45:36;2.50;;;1.80;;
39858;SDS011;25528;47.810;12.960;2022-07-01T05:48:02;3.67;;;1.67;;
39858;SDS011;25528;47.810;12.960;2022-07-01T05:50:28;2.63;;;2.03;;
39858;SDS011;25528;47.810;12.960;2022-07-01T05:52:53;3.47;;;2.00;;
39858;SDS011;25528;47.810;12.960;2022-07-01T05:55:19;2.20;;;1.60;;
39858;SDS011;25528;47.810;12.960;2022-07-01T05:57:45;2.70;;;1.80;;
39858;SDS011;25528;47.810;12.960;2022-07-01T06:00:11;3.30;;;1.70;;
39858;SDS011;25528;47.810;12.960;2022-07-01T06:02:37;2.90;;;1.77;;
39858;SDS011;25528;47.810;12.960;2022-07-01T06:05:03;2.30;;;1.80;;
39858;SDS011;25528;47.810;12.960;2022-07-01T06:07:29;3.65;;;1.60;;
39858;SDS011;25528;47.810;12.960;2022-07-01T06:09:55;1.90;;;1.50;;
39858;SDS011;25528;47.810;12.960;2022-07-01T06:12:21;1.98;;;1.63;;
39858;SDS011;25528;47.810;12.960;2022-07-01T06:14:47;2.53;;;2.10;;
39858;SDS011;25528;47.810;12.960;2022-07-01T06:17:13;2.17;;;1.80;;
39858;SDS011;25528;47.810;12.960;2022-07-01T06:19:39;3.33;;;1.70;;
39858;SDS011;25528;47.810;12.960;2022-07-01T06:22:05;2.90;;;1.85;;
39858;SDS011;25528;47.810;12.960;2022-07-01T06:24:31;2.65;;;1.73;;
39858;SDS011;25528;47.810;12.960;2022-07-01T06:26:57;3.17;;;1.80;;
39858;SDS011;25528;47.810;12.960;2022-07-01T06:29:23;2.53;;;1.90;;
39858;SDS011;25528;47.810;12.960;2022-07-01T06:31:49;2.17;;;1.88;;
39858;SDS011;25528;47.810;12.960;2022-07-01T06:34:14;2.13;;;1.70;;
39858;SDS011;25528;47.810;12.960;2022-07-01T06:36:40;3.13;;;1.90;;
39858;SDS011;25528;47.810;12.960;2022-07-01T06:39:05;2.30;;;1.90;;
39858;SDS011;25528;47.810;12.960;2022-07-01T06:41:31;2.07;;;1.87;;
39858;SDS011;25528;47.810;12.960;2022-07-01T06:43:58;2.33;;;1.90;;
39858;SDS011;25528;47.810;12.960;2022-07-01T06:46:24;3.70;;;2.03;;
39858;SDS011;25528;47.810;12.960;2022-07-01T06:48:51;2.20;;;1.92;;
39858;SDS011;25528;47.810;12.960;2022-07-01T06:51:17;2.40;;;1.90;;
39858;SDS011;25528;47.810;12.960;2022-07-01T06:53:43;2.50;;;1.90;;
39858;SDS011;25528;47.810;12.960;2022-07-01T06:56:10;2.17;;;1.98;;
39858;SDS011;25528;47.810;12.960;2022-07-01T06:58:36;2.03;;;1.65;;
39858;SDS011;25528;47.810;12.960;2022-07-01T07:01:02;2.40;;;2.03;;
39858;SDS011;25528;47.810;12.960;2022-07-01T07:03:28;2.15;;;1.95;;
39858;SDS011;25528;47.810;12.960;2022-07-01T07:05:54;2.22;;;1.95;;
39858;SDS011;25528;47.810;12.960;2022-07-01T07:08:20;2.47;;;1.90;;
39858;SDS011;25528;47.810;12.960;2022-07-01T07:10:46;1.70;;;1.60;;
39858;SDS011;25528;47.810;12.960;2022-07-01T07:13:11;2.33;;;1.90;;
39858;SDS011;25528;47.810;12.960;2022-07-01T07:15:37;2.92;;;1.60;;
39858;SDS011;25528;47.810;12.960;2022-07-01T07:18:06;2.00;;;1.70;;
39858;SDS011;25528;47.810;12.960;2022-07-01T07:20:32;2.13;;;1.88;;
39858;SDS011;25528;47.810;12.960;2022-07-01T07:22:59;2.08;;;1.75;;
39858;SDS011;25528;47.810;12.960;2022-07-01T07:25:24;3.00;;;1.80;;
39858;SDS011;25528;47.810;12.960;2022-07-01T07:27:50;3.63;;;1.85;;
39858;SDS011;25528;47.810;12.960;2022-07-01T07:30:16;2.65;;;1.70;;
39858;SDS011;25528;47.810;12.960;2022-07-01T07:32:42;2.33;;;1.87;;
39858;SDS011;25528;47.810;12.960;2022-07-01T07:35:08;2.75;;;1.70;;
39858;SDS011;25528;47.810;12.960;2022-07-01T07:37:34;3.00;;;1.70;;
39858;SDS011;25528;47.810;12.960;2022-07-01T07:40:00;2.87;;;1.77;;
39858;SDS011;25528;47.810;12.960;2022-07-01T07:42:28;2.00;;;1.50;;
39858;SDS011;25528;47.810;12.960;2022-07-01T07:44:54;2.40;;;1.80;;
39858;SDS011;25528;47.810;12.960;2022-07-01T07:47:20;2.23;;;1.67;;
39858;SDS011;25528;47.810;12.960;2022-07-01T07:49:46;1.90;;;1.70;;
39858;SDS011;25528;47.810;12.960;2022-07-01T07:52:12;2.07;;;1.70;;
39858;SDS011;25528;47.810;12.960;2022-07-01T07:54:37;2.72;;;1.52;;
39858;SDS011;25528;47.810;12.960;2022-07-01T07:57:04;2.03;;;1.70;;
39858;SDS011;25528;47.810;12.960;2022-07-01T07:59:30;1.88;;;1.50;;
39858;SDS011;25528;47.810;12.960;2022-07-01T08:01:56;2.53;;;1.80;;
39858;SDS011;25528;47.810;12.960;2022-07-01T08:04:22;2.08;;;1.70;;
39858;SDS011;25528;47.810;12.960;2022-07-01T08:06:47;2.00;;;1.80;;
39858;SDS011;25528;47.810;12.960;2022-07-01T08:09:13;2.65;;;1.98;;
39858;SDS011;25528;47.810;12.960;2022-07-01T08:11:39;3.07;;;1.40;;
39858;SDS011;25528;47.810;12.960;2022-07-01T08:14:04;2.05;;;1.73;;
39858;SDS011;25528;47.810;12.960;2022-07-01T08:16:30;1.80;;;1.57;;
39858;SDS011;25528;47.810;12.960;2022-07-01T08:18:56;2.40;;;1.83;;
39858;SDS011;25528;47.810;12.960;2022-07-01T08:21:22;1.90;;;1.70;;
39858;SDS011;25528;47.810;12.960;2022-07-01T08:23:48;2.80;;;1.65;;
39858;SDS011;25528;47.810;12.960;2022-07-01T08:26:13;1.60;;;1.47;;
39858;SDS011;25528;47.810;12.960;2022-07-01T08:28:40;1.83;;;1.53;;
39858;SDS011;25528;47.810;12.960;2022-07-01T08:31:07;2.55;;;1.50;;
39858;SDS011;25528;47.810;12.960;2022-07-01T08:33:32;2.10;;;1.70;;
39858;SDS011;25528;47.810;12.960;2022-07-01T08:35:58;2.20;;;1.70;;
39858;SDS011;25528;47.810;12.960;2022-07-01T08:38:24;1.83;;;1.63;;
39858;SDS011;25528;47.810;12.960;2022-07-01T08:40:49;2.13;;;1.93;;
39858;SDS011;25528;47.810;12.960;2022-07-01T08:43:15;2.80;;;1.65;;
39858;SDS011;25528;47.810;12.960;2022-07-01T08:45:41;2.43;;;1.80;;
39858;SDS011;25528;47.810;12.960;2022-07-01T08:48:07;2.08;;;1.65;;
39858;SDS011;25528;47.810;12.960;2022-07-01T08:50:34;2.30;;;1.60;;
39858;SDS011;25528;47.810;12.960;2022-07-01T08:53:04;1.90;;;1.70;;
39858;SDS011;25528;47.810;12.960;2022-07-01T08:55:31;1.80;;;1.70;;
39858;SDS011;25528;47.810;12.960;2022-07-01T08:57:57;1.80;;;1.70;;
39858;SDS011;25528;47.810;12.960;2022-07-01T09:00:32;1.92;;;1.77;;
39858;SDS011;25528;47.810;12.960;2022-07-01T09:05:26;2.27;;;1.80;;
39858;SDS011;25528;47.810;12.960;2022-07-01T09:08:00;1.80;;;1.70;;
39858;SDS011;25528;47.810;12.960;2022-07-01T09:10:27;1.70;;;1.60;;
39858;SDS011;25528;47.810;12.960;2022-07-01T09:12:56;2.15;;;1.60;;
39858;SDS011;25528;47.810;12.960;2022-07-01T09:15:29;1.67;;;1.52;;
39858;SDS011;25528;47.810;12.960;2022-07-01T09:17:56;2.00;;;1.53;;
39858;SDS011;25528;47.810;12.960;2022-07-01T09:20:34;1.80;;;1.55;;
39858;SDS011;25528;47.810;12.960;2022-07-01T09:23:12;3.00;;;1.70;;
39858;SDS011;25528;47.810;12.960;2022-07-01T09:25:48;1.67;;;1.58;;
39858;SDS011;25528;47.810;12.960;2022-07-01T09:28:22;1.63;;;1.40;;
39858;SDS011;25528;47.810;12.960;2022-07-01T09:30:51;1.73;;;1.50;;
39858;SDS011;25528;47.810;12.960;2022-07-01T09:33:28;2.30;;;1.70;;
39858;SDS011;25528;47.810;12.960;2022-07-01T09:35:54;2.53;;;1.40;;
39858;SDS011;25528;47.810;12.960;2022-07-01T09:38:21;1.80;;;1.45;;
39858;SDS011;25528;47.810;12.960;2022-07-01T09:40:56;2.22;;;1.60;;
39858;SDS011;25528;47.810;12.960;2022-07-01T09:43:27;2.13;;;1.70;;
39858;SDS011;25528;47.810;12.960;2022-07-01T09:46:06;1.80;;;1.40;;
39858;SDS011;25528;47.810;12.960;2022-07-01T09:51:00;2.35;;;1.88;;
39858;SDS011;25528;47.810;12.960;2022-07-01T09:53:30;2.65;;;1.33;;
39858;SDS011;25528;47.810;12.960;2022-07-01T09:55:56;1.65;;;1.20;;
39858;SDS011;25528;47.810;12.960;2022-07-01T09:58:22;2.03;;;1.40;;
39858;SDS011;25528;47.810;12.960;2022-07-01T10:00:47;2.17;;;1.40;;
39858;SDS011;25528;47.810;12.960;2022-07-01T10:03:16;2.67;;;1.58;;
39858;SDS011;25528;47.810;12.960;2022-07-01T10:14:12;1.95;;;1.55;;
39858;SDS011;25528;47.810;12.960;2022-07-01T10:16:39;1.67;;;1.40;;
39858;SDS011;25528;47.810;12.960;2022-07-01T10:19:47;1.50;;;1.30;;
39858;SDS011;25528;47.810;12.960;2022-07-01T10:21:56;1.90;;;1.33;;
39858;SDS011;25528;47.810;12.960;2022-07-01T10:24:45;1.70;;;1.38;;
39858;SDS011;25528;47.810;12.960;2022-07-01T10:27:22;1.65;;;1.55;;
39858;SDS011;25528;47.810;12.960;2022-07-01T10:29:49;1.50;;;1.40;;
39858;SDS011;25528;47.810;12.960;2022-07-01T10:32:34;1.67;;;1.45;;
39858;SDS011;25528;47.810;12.960;2022-07-01T10:35:16;2.10;;;1.58;;
39858;SDS011;25528;47.810;12.960;2022-07-01T10:38:00;1.50;;;1.40;;
39858;SDS011;25528;47.810;12.960;2022-07-01T10:40:39;1.60;;;1.50;;
39858;SDS011;25528;47.810;12.960;2022-07-01T10:43:32;1.70;;;1.60;;
39858;SDS011;25528;47.810;12.960;2022-07-01T10:45:58;1.50;;;1.40;;
39858;SDS011;25528;47.810;12.960;2022-07-01T10:48:24;1.50;;;1.37;;
39858;SDS011;25528;47.810;12.960;2022-07-01T10:50:50;1.90;;;1.70;;
39858;SDS011;25528;47.810;12.960;2022-07-01T10:53:17;1.77;;;1.58;;
39858;SDS011;25528;47.810;12.960;2022-07-01T10:55:44;1.50;;;1.40;;
39858;SDS011;25528;47.810;12.960;2022-07-01T10:58:11;2.10;;;1.80;;
39858;SDS011;25528;47.810;12.960;2022-07-01T11:00:37;2.22;;;2.03;;
39858;SDS011;25528;47.810;12.960;2022-07-01T11:05:36;3.60;;;2.10;;
39858;SDS011;25528;47.810;12.960;2022-07-01T11:08:04;2.28;;;1.80;;
39858;SDS011;25528;47.810;12.960;2022-07-01T11:10:31;2.55;;;1.40;;
39858;SDS011;25528;47.810;12.960;2022-07-01T11:12:58;2.33;;;1.60;;
39858;SDS011;25528;47.810;12.960;2022-07-01T11:15:28;2.50;;;2.10;;
39858;SDS011;25528;47.810;12.960;2022-07-01T11:17:55;21.90;;;14.50;;
39858;SDS011;25528;47.810;12.960;2022-07-01T11:20:22;35.42;;;25.75;;
39858;SDS011;25528;47.810;12.960;2022-07-01T11:22:49;46.65;;;30.33;;
39858;SDS011;25528;47.810;12.960;2022-07-01T11:25:16;44.30;;;29.23;;
39858;SDS011;25528;47.810;12.960;2022-07-01T11:27:47;50.97;;;31.70;;
39858;SDS011;25528;47.810;12.960;2022-07-01T11:30:15;53.70;;;30.15;;
39858;SDS011;25528;47.810;12.960;2022-07-01T11:32:45;47.72;;;26.38;;
39858;SDS011;25528;47.810;12.960;2022-07-01T11:35:17;57.70;;;31.80;;
39858;SDS011;25528;47.810;12.960;2022-07-01T11:38:11;93.65;;;53.03;;
39858;SDS011;25528;47.810;12.960;2022-07-01T11:41:21;88.97;;;49.70;;
39858;SDS011;25528;47.810;12.960;2022-07-01T11:43:52;73.30;;;43.35;;
39858;SDS011;25528;47.810;12.960;2022-07-01T11:46:18;71.90;;;42.92;;
39858;SDS011;25528;47.810;12.960;2022-07-01T11:48:48;77.50;;;45.35;;
39858;SDS011;25528;47.810;12.960;2022-07-01T11:51:22;77.65;;;42.40;;
39858;SDS011;25528;47.810;12.960;2022-07-01T11:53:50;62.70;;;37.87;;
39858;SDS011;25528;47.810;12.960;2022-07-01T11:56:20;61.67;;;36.13;;
39858;SDS011;25528;47.810;12.960;2022-07-01T11:59:00;64.07;;;37.28;;
39858;SDS011;25528;47.810;12.960;2022-07-01T12:01:37;58.08;;;34.35;;
39858;SDS011;25528;47.810;12.960;2022-07-01T12:04:06;53.15;;;31.90;;
39858;SDS011;25528;47.810;12.960;2022-07-01T12:06:33;50.45;;;31.73;;
39858;SDS011;25528;47.810;12.960;2022-07-01T12:09:01;47.43;;;29.40;;
39858;SDS011;25528;47.810;12.960;2022-07-01T12:11:28;46.80;;;29.67;;
39858;SDS011;25528;47.810;12.960;2022-07-01T12:13:54;47.63;;;29.45;;
39858;SDS011;25528;47.810;12.960;2022-07-01T12:16:24;44.83;;;27.70;;
39858;SDS011;25528;47.810;12.960;2022-07-01T12:19:00;43.60;;;27.20;;
39858;SDS011;25528;47.810;12.960;2022-07-01T12:21:27;44.20;;;26.90;;
39858;SDS011;25528;47.810;12.960;2022-07-01T12:32:13;35.28;;;22.25;;
39858;SDS011;25528;47.810;12.960;2022-07-01T12:35:08;37.05;;;22.10;;
39858;SDS011;25528;47.810;12.960;2022-07-01T12:37:54;34.83;;;21.70;;
39858;SDS011;25528;47.810;12.960;2022-07-01T12:40:20;35.47;;;21.33;;
39858;SDS011;25528;47.810;12.960;2022-07-01T12:42:49;32.78;;;20.40;;
39858;SDS011;25528;47.810;12.960;2022-07-01T12:45:16;35.88;;;20.20;;
39858;SDS011;25528;47.810;12.960;2022-07-01T12:47:48;30.88;;;19.10;;
39858;SDS011;25528;47.810;12.960;2022-07-01T12:50:19;31.48;;;18.75;;
39858;SDS011;25528;47.810;12.960;2022-07-01T12:53:04;27.83;;;17.60;;
39858;SDS011;25528;47.810;12.960;2022-07-01T12:55:31;26.35;;;16.75;;
39858;SDS011;25528;47.810;12.960;2022-07-01T12:58:15;26.55;;;16.02;;
39858;SDS011;25528;47.810;12.960;2022-07-01T13:00:50;24.70;;;15.50;;
39858;SDS011;25528;47.810;12.960;2022-07-01T13:03:20;24.13;;;14.83;;
39858;SDS011;25528;47.810;12.960;2022-07-01T13:05:47;23.85;;;15.00;;
39858;SDS011;25528;47.810;12.960;2022-07-01T13:08:14;22.58;;;13.77;;
39858;SDS011;25528;47.810;12.960;2022-07-01T13:10:40;23.83;;;13.68;;
39858;SDS011;25528;47.810;12.960;2022-07-01T13:13:06;22.17;;;13.13;;
39858;SDS011;25528;47.810;12.960;2022-07-01T13:15:32;21.55;;;13.30;;
39858;SDS011;25528;47.810;12.960;2022-07-01T13:17:59;19.98;;;12.63;;
39858;SDS011;25528;47.810;12.960;2022-07-01T13:20:25;19.63;;;12.45;;
39858;SDS011;25528;47.810;12.960;2022-07-01T13:22:51;20.03;;;12.00;;
39858;SDS011;25528;47.810;12.960;2022-07-01T13:25:18;16.98;;;11.52;;
39858;SDS011;25528;47.810;12.960;2022-07-01T13:27:44;18.05;;;11.10;;
39858;SDS011;25528;47.810;12.960;2022-07-01T13:30:11;19.98;;;10.88;;
39858;SDS011;25528;47.810;12.960;2022-07-01T13:32:38;14.30;;;8.60;;
39858;SDS011;25528;47.810;12.960;2022-07-01T13:35:06;11.80;;;7.63;;
39858;SDS011;25528;47.810;12.960;2022-07-01T13:37:33;11.40;;;8.13;;
39858;SDS011;25528;47.810;12.960;2022-07-01T13:39:59;13.63;;;7.55;;
39858;SDS011;25528;47.810;12.960;2022-07-01T13:42:25;12.27;;;7.50;;
39858;SDS011;25528;47.810;12.960;2022-07-01T13:44:50;11.80;;;7.10;;
39858;SDS011;25528;47.810;12.960;2022-07-01T13:47:16;12.77;;;7.20;;
39858;SDS011;25528;47.810;12.960;2022-07-01T13:49:43;12.50;;;7.50;;
39858;SDS011;25528;47.810;12.960;2022-07-01T14:06:02;9.90;;;4.97;;
39858;SDS011;25528;47.810;12.960;2022-07-01T14:08:28;8.33;;;4.60;;
39858;SDS011;25528;47.810;12.960;2022-07-01T14:10:54;9.05;;;4.60;;
39858;SDS011;25528;47.810;12.960;2022-07-01T14:13:20;9.53;;;4.90;;
39858;SDS011;25528;47.810;12.960;2022-07-01T14:15:47;8.10;;;4.85;;
39858;SDS011;25528;47.810;12.960;2022-07-01T14:18:13;8.73;;;4.63;;
39858;SDS011;25528;47.810;12.960;2022-07-01T14:20:40;8.57;;;4.70;;
39858;SDS011;25528;47.810;12.960;2022-07-01T14:23:06;7.68;;;4.55;;
39858;SDS011;25528;47.810;12.960;2022-07-01T14:25:32;8.02;;;4.60;;
39858;SDS011;25528;47.810;12.960;2022-07-01T14:27:58;9.05;;;4.63;;
39858;SDS011;25528;47.810;12.960;2022-07-01T14:30:24;8.25;;;4.28;;
39858;SDS011;25528;47.810;12.960;2022-07-01T14:32:50;9.80;;;4.50;;
39858;SDS011;25528;47.810;12.960;2022-07-01T14:35:16;7.00;;;4.18;;
39858;SDS011;25528;47.810;12.960;2022-07-01T14:37:41;10.68;;;4.25;;
39858;SDS011;25528;47.810;12.960;2022-07-01T14:40:08;6.57;;;3.80;;
39858;SDS011;25528;47.810;12.960;2022-07-01T14:42:36;5.97;;;3.67;;
39858;SDS011;25528;47.810;12.960;2022-07-01T14:45:03;9.60;;;4.07;;
39858;SDS011;25528;47.810;12.960;2022-07-01T14:47:29;16.13;;;4.03;;
39858;SDS011;25528;47.810;12.960;2022-07-01T14:49:55;8.38;;;3.60;;
39858;SDS011;25528;47.810;12.960;2022-07-01T14:52:21;8.40;;;3.78;;
39858;SDS011;25528;47.810;12.960;2022-07-01T14:54:49;8.70;;;3.65;;
39858;SDS011;25528;47.810;12.960;2022-07-01T14:57:15;9.88;;;3.40;;
39858;SDS011;25528;47.810;12.960;2022-07-01T14:59:41;7.93;;;3.58;;
39858;SDS011;25528;47.810;12.960;2022-07-01T15:02:06;8.15;;;3.47;;
39858;SDS011;25528;47.810;12.960;2022-07-01T15:04:32;9.48;;;3.80;;
39858;SDS011;25528;47.810;12.960;2022-07-01T15:06:58;8.47;;;3.20;;
39858;SDS011;25528;47.810;12.960;2022-07-01T15:09:24;7.57;;;3.22;;
39858;SDS011;25528;47.810;12.960;2022-07-01T15:11:50;6.67;;;3.13;;
39858;SDS011;25528;47.810;12.960;2022-07-01T15:14:17;6.75;;;3.13;;
39858;SDS011;25528;47.810;12.960;2022-07-01T15:16:43;8.93;;;3.42;;